Dorothy Ann — WDE8761 — position and weather

sailwx.info

Track history (hours):
 
Tides and Currents Weather Stations Pressure Air Temp Water Temp Dewpoint Dewpoint Depression Visibility Wind Speed Wind Dir Waves Ship Positions

Dorothy Ann

Owner: THE INTERLAKE STEAMSHIP COMPANY, Middleburg Heights, OH. More information available from US FCC via Universal Licensing System and Coast Guard Vessel Documentation Center.

Last reported at 2018-Jan-02 07:00 UTC. Time now 2018-Jan-22 17:56 UTC.
Position N 41°48' W 081°42'.
Warning: this ship's position is 20 days out of date.

Length 215 m; draft 6.1 m.

Type: Cargo ship. MMSI: 367409260.

Wind from 250 at 52 knots

Barometer 1033.7 mb
Air temperature -10.9 ° C
Water temperature 5.0 ° C

Date/timePositionNaut miles runAvg speedWind from/ knotsBaromVisibWave heightAir tempDewpointWater temp
2018-Jan-02 07:00N 41°48' W 081°42'0 0.0 250 / 521033.7 -10.9 5.0
2018-Jan-02 06:00N 41°48' W 081°42'6 6.0 260 / 281033.7 -11.3 5.0
2018-Jan-02 05:00N 41°42' W 081°42'6 6.0 250 / 311034.0 -12.1 4.4
2018-Jan-02 04:00N 41°36' W 081°42'6 6.0 270 / 251034.4 -12.5 3.4
2018-Jan-02 03:00N 41°30' W 081°42'0 0.0 260 / 171034.7 -12.7 3.0
2018-Jan-02 02:00N 41°30' W 081°42'0 0.0 230 / 91035.0 -12.8 3.2
2018-Jan-02 01:00N 41°30' W 081°42'0 0.0 220 / 91034.7 -12.3 3.2
2018-Jan-02 00:00N 41°30' W 081°42'0 0.0 220 / 41034.4 -12.5 3.3
2018-Jan-01 23:00N 41°30' W 081°42'0 0.0 270 / 101034.0 -12.4 3.7
2018-Jan-01 22:00N 41°30' W 081°42'0 0.0 240 / 41033.7 -12.1 3.7
2018-Jan-01 21:00N 41°30' W 081°42'0 0.0 300 / 171033.4 -11.2 3.6
2018-Jan-01 20:00N 41°30' W 081°42'0 0.0 300 / 241032.7 -11.8 3.7
2018-Jan-01 19:00N 41°30' W 081°42'0 0.0 300 / 211032.3 -12.3 3.6
2018-Jan-01 18:00N 41°30' W 081°42'0 0.0 290 / 211032.3 -11.9 3.5
2018-Jan-01 17:00N 41°30' W 081°42'0 0.0 280 / 101033.0 -12.0 3.3
2018-Jan-01 16:00N 41°30' W 081°42'0 0.0 030 / 171033.7 -12.9 3.2
2018-Jan-01 15:00N 41°30' W 081°42'0 0.0 240 / 121033.4 -13.7 3.4
2018-Jan-01 14:00N 41°30' W 081°42'0 0.0 130 / 71033.0 -14.8 5.5
2018-Jan-01 13:00N 41°30' W 081°42'0 0.0 270 / 111033.0 -15.8 5.8
2018-Jan-01 12:00N 41°30' W 081°42'0 0.0 210 / 131032.7 -16.2 5.1
2018-Jan-01 11:00N 41°30' W 081°42'0 0.0 210 / 101032.3 -15.7 5.5
2018-Jan-01 10:00N 41°30' W 081°42'0 0.0 210 / 161032.3 -15.4 5.4
2018-Jan-01 09:00N 41°30' W 081°42'0 0.0 200 / 101032.7 -14.8 5.4
2018-Jan-01 08:00N 41°30' W 081°42'0 0.0 210 / 121032.7 -14.6 5.5
2018-Jan-01 07:00N 41°30' W 081°42'0 0.0 210 / 101032.0 -14.5 5.4
2018-Jan-01 06:00N 41°30' W 081°42'0 0.0 210 / 111032.0 -14.2 5.3
2018-Jan-01 05:00N 41°30' W 081°42'0 0.0 210 / 101032.0 -13.8 5.3
2018-Jan-01 04:00N 41°30' W 081°42'0 0.0 200 / 101032.3 -13.4 5.7
2018-Jan-01 03:00N 41°30' W 081°42'0 0.0 220 / 121032.0 -12.4 5.4
2018-Jan-01 02:00N 41°30' W 081°42'0 0.0 240 / 81031.7 -11.3 6.1
2018-Jan-01 01:00N 41°30' W 081°42'0 0.0 270 / 51031.7 -9.7 5.7
2018-Jan-01 00:00N 41°30' W 081°42'0 0.0 250 / 101031.3 -9.6 3.8
2017-Dec-31 23:00N 41°30' W 081°42'6 6.0 290 / 141031.0 -8.4 3.0
2017-Dec-31 22:00N 41°36' W 081°42'7 7.5 310 / 181030.3 -8.3 4.1
2017-Dec-31 21:00N 41°42' W 081°36'7 7.5
2017-Dec-31 20:00N 41°48' W 081°30'7 7.5
2017-Dec-31 19:00N 41°54' W 081°24'4 4.5 320 / 141029.3 -8.6 4.9
2017-Dec-31 18:00N 41°54' W 081°18'7 7.5 330 / 131029.3 -8.3 5.3
2017-Dec-31 17:00N 42°00' W 081°12'9 8.9 360 / 81029.6 -9.0 5.1
2017-Dec-31 16:00N 42°00' W 081°00'4 4.5 020 / 71030.3 -9.4 5.0
2017-Dec-31 15:00N 42°00' W 080°54'4 4.5 030 / 91030.0 -10.0 4.7
2017-Dec-31 14:00N 42°00' W 080°48'6 6.0 050 / 141028.9 -10.0 3.6
2017-Dec-31 13:00N 41°54' W 080°48'0 0.0 040 / 91029.6 -9.9 3.1
2017-Dec-31 12:00N 41°54' W 080°48'0 0.0 020 / 91027.9 -9.8 3.3
2017-Dec-31 11:00N 41°54' W 080°48'0 0.0 040 / 161027.3 -9.9 3.5
2017-Dec-31 10:00N 41°54' W 080°48'0 0.0 020 / 91027.6 -9.8 3.5
2017-Dec-31 09:00N 41°54' W 080°48'0 0.0 1027.9 -9.5 3.5
2017-Dec-31 08:00N 41°54' W 080°48'0 0.0 1027.6 -9.6 3.6
2017-Dec-31 07:00N 41°54' W 080°48'0 0.0 240 / 81026.2 -9.2 3.6
2017-Dec-31 06:00N 41°54' W 080°48'0 0.0 310 / 61025.9 -8.8 3.6
2017-Dec-31 05:00N 41°54' W 080°48'0 0.0 1025.6 -8.6 3.6
2017-Dec-31 04:00N 41°54' W 080°48'0 0.0 270 / 11025.2 -8.6 3.6
2017-Dec-31 03:00N 41°54' W 080°48'0 0.0 340 / 71024.2 -8.2 3.6
2017-Dec-31 02:00N 41°54' W 080°48'0 0.0 350 / 131023.2 -7.8 3.6
2017-Dec-31 01:00N 41°54' W 080°48'0 0.0 310 / 201021.8 -7.6 3.5
2017-Dec-31 00:00N 41°54' W 080°48'0 0.0 340 / 191021.2 -7.8 3.6
2017-Dec-30 23:00N 41°54' W 080°48'0 0.0 300 / 261019.8 -8.4 3.5
2017-Dec-30 22:00N 41°54' W 080°48'0 0.0 290 / 201018.5 -7.9 3.5
2017-Dec-30 21:00N 41°54' W 080°48'0 0.0 300 / 261017.1 -8.0 3.5
2017-Dec-30 20:00N 41°54' W 080°48'0 0.0 300 / 241016.4 -7.9 3.4
2017-Dec-30 19:00N 41°54' W 080°48'0 0.0 290 / 221016.1 -8.0 3.5
2017-Dec-30 18:00N 41°54' W 080°48'0 0.0 310 / 201015.4 -8.0 3.7
2017-Dec-30 17:00N 41°54' W 080°48'0 0.0 300 / 201015.4 -7.1 3.5
2017-Dec-30 16:00N 41°54' W 080°48'0 0.0 240 / 131016.1 -8.4 3.5
2017-Dec-30 15:00N 41°54' W 080°48'0 0.0 240 / 111016.4 -9.0 3.5
2017-Dec-30 14:00N 41°54' W 080°48'0 0.0 230 / 91016.8 -9.1 3.6
2017-Dec-30 13:00N 41°54' W 080°48'0 0.0 210 / 61016.8 -9.2 3.5
2017-Dec-30 12:00N 41°54' W 080°48'0 0.0 190 / 61017.4 -9.1 3.5
2017-Dec-30 11:00N 41°54' W 080°48'0 0.0 270 / 31017.1 -9.2 3.5
2017-Dec-30 10:00N 41°54' W 080°48'0 0.0 230 / 51017.8 -9.2 3.5
2017-Dec-30 09:00N 41°54' W 080°48'0 0.0 220 / 71018.1 -9.0 3.5
2017-Dec-30 08:00N 41°54' W 080°48'0 0.0 180 / 61018.5 -9.2 3.5
2017-Dec-30 07:00N 41°54' W 080°48'0 0.0 180 / 61018.8 -9.3 3.6
2017-Dec-30 06:00N 41°54' W 080°48'0 0.0 240 / 71019.8 -9.1 3.4
2017-Dec-30 05:00N 41°54' W 080°48'0 0.0 360 / 141020.5 -8.7 3.1
2017-Dec-30 04:00N 41°54' W 080°48'4 4.5 210 / 201021.5 -8.3 3.7
2017-Dec-30 03:00N 41°54' W 080°54'9 8.9 200 / 211022.2 -8.1 3.8
2017-Dec-30 02:00N 41°54' W 081°06'4 4.5 200 / 231022.9 -7.3 4.0
2017-Dec-30 01:00N 41°54' W 081°12'1110.8 170 / 121023.9 -6.6 4.2
2017-Dec-30 00:00N 41°48' W 081°24'7 7.5 230 / 121024.5 -7.0 3.6
2017-Dec-29 23:00N 41°42' W 081°30'1110.8 260 / 171024.9 -5.5 3.4
2017-Dec-29 22:00N 41°36' W 081°42'6 6.0 250 / 141025.2 -3.0 3.3
2017-Dec-29 21:00N 41°30' W 081°42'0 0.0 240 / 61025.9 -7.6 4.1
2017-Dec-29 20:00N 41°30' W 081°42'0 0.0 250 / 81025.2 -7.7 5.7
2017-Dec-29 19:00N 41°30' W 081°42'0 0.0 220 / 81025.9 -6.4 6.0
2017-Dec-29 18:00N 41°30' W 081°42'0 0.0 180 / 91025.6 -8.2 5.2
2017-Dec-29 17:00N 41°30' W 081°42'0 0.0 270 / 41026.6 -8.8 5.6
2017-Dec-29 16:00N 41°30' W 081°42'0 0.0 080 / 41026.9 -9.2 5.6
2017-Dec-29 15:00N 41°30' W 081°42'0 0.0 030 / 41026.6 -9.5 6.3
2017-Dec-29 14:00N 41°30' W 081°42'0 0.0 250 / 31026.2 -10.0 5.9
2017-Dec-29 13:00N 41°30' W 081°42'0 0.0 140 / 21026.2 -9.9 6.0
2017-Dec-29 12:00N 41°30' W 081°42'0 0.0 010 / 21026.2 -10.0 6.3
2017-Dec-29 11:00N 41°30' W 081°42'0 0.0 240 / 41026.2 -10.0 6.2
2017-Dec-29 10:00N 41°30' W 081°42'0 0.0 140 / 41026.9 -10.1 6.1
2017-Dec-29 09:00N 41°30' W 081°42'0 0.0 180 / 31027.6 -10.2 6.0
2017-Dec-29 08:00N 41°30' W 081°42'0 0.0 170 / 41027.6 -10.1 6.0
2017-Dec-29 07:00N 41°30' W 081°42'0 0.0 290 / 31027.9 -10.2 5.8
2017-Dec-29 06:00N 41°30' W 081°42'0 0.0 120 / 61028.3 -10.0 5.4
2017-Dec-29 05:00N 41°30' W 081°42'0 0.0 090 / 51028.9 -10.0 4.3
2017-Dec-29 04:00N 41°30' W 081°42'0 0.0 160 / 111030.3 -10.1 3.3
2017-Dec-29 03:00N 41°30' W 081°42'0 0.0 180 / 61031.7 -9.8 3.9
2017-Dec-29 02:00N 41°30' W 081°42'0 0.0 130 / 51032.0 -8.8 4.2
2017-Dec-29 01:00N 41°30' W 081°42'0 0.0 120 / 51032.7 -8.9 4.1
2017-Dec-29 00:00N 41°30' W 081°42'0 0.0 110 / 61033.0 -8.8 4.1
2017-Dec-28 23:00N 41°30' W 081°42'0 0.0 110 / 61033.4 -9.0 4.0
2017-Dec-28 22:00N 41°30' W 081°42'0 0.0 110 / 41034.4 -8.5 3.5
2017-Dec-28 21:00N 41°30' W 081°42'0 0.0 310 / 11035.0 -7.6 3.5
2017-Dec-28 20:00N 41°30' W 081°42'0 0.0 330 / 41035.4 -9.1 3.4
2017-Dec-28 19:00N 41°30' W 081°42'0 0.0 020 / 21036.1 -7.8 3.4
2017-Dec-28 18:00N 41°30' W 081°42'0 0.0 220 / 11037.4 -10.0 3.4
2017-Dec-28 17:00N 41°30' W 081°42'0 0.0 290 / 31038.4 -10.4 3.5
2017-Dec-28 16:00N 41°30' W 081°42'0 0.0 110 / 11039.1 -11.2 3.5
2017-Dec-28 15:00N 41°30' W 081°42'0 0.0 240 1039.1 -11.7 3.5
2017-Dec-28 14:00N 41°30' W 081°42'0 0.0 270 / 51038.8 -11.2 4.9
2017-Dec-28 13:00N 41°30' W 081°42'0 0.0 060 / 51038.8 -9.4 5.5
2017-Dec-28 12:00N 41°30' W 081°42'0 0.0 210 / 121038.4 -12.7 5.1
2017-Dec-28 11:00N 41°30' W 081°42'0 0.0 200 / 101038.4 -12.7 5.3
2017-Dec-28 10:00N 41°30' W 081°42'0 0.0 220 / 101038.4 -13.0 5.2
2017-Dec-28 09:00N 41°30' W 081°42'0 0.0 220 / 81038.1 -12.5 5.3
2017-Dec-28 08:00N 41°30' W 081°42'0 0.0 210 / 101037.8 -12.7 5.4
2017-Dec-28 07:00N 41°30' W 081°42'0 0.0 180 / 91037.8 -12.8 5.3
2017-Dec-28 06:00N 41°30' W 081°42'0 0.0 220 / 61038.1 -11.9 5.7
2017-Dec-28 05:00N 41°30' W 081°42'0 0.0 180 / 41037.8 -11.1 5.3
2017-Dec-28 04:00N 41°30' W 081°42'0 0.0 240 / 81037.8 -12.2 5.6
2017-Dec-28 03:00N 41°30' W 081°42'0 0.0 230 / 31037.8 -11.9 3.6
2017-Dec-28 02:00N 41°30' W 081°42'0 0.0 280 / 21037.8 -12.1 3.4
2017-Dec-28 01:00N 41°30' W 081°42'0 0.0 180 / 41038.1 -12.1 3.4
2017-Dec-28 00:00N 41°30' W 081°42'0 0.0 240 / 441037.8 -10.6 3.4
2017-Dec-27 23:00N 41°30' W 081°42'0 0.0 280 / 41037.8 -11.7 3.5
2017-Dec-27 22:00N 41°30' W 081°42'0 0.0 1037.8 -11.9 3.5
2017-Dec-27 21:00N 41°30' W 081°42'0 0.0 280 / 141037.1 -10.9 3.5
2017-Dec-27 20:00N 41°30' W 081°42'0 0.0 150 / 131036.7 -11.2 3.6
2017-Dec-27 19:00N 41°30' W 081°42'0 0.0 260 / 151036.4 -11.5 3.6
2017-Dec-27 18:00N 41°30' W 081°42'0 0.0 200 / 151036.4 -11.4 4.0
2017-Dec-27 17:00N 41°30' W 081°42'0 0.0 260 / 61037.1 -10.5 5.2
2017-Dec-27 16:00N 41°30' W 081°42'0 0.0 200 / 41037.4 -11.7 5.5
2017-Dec-27 15:00N 41°30' W 081°42'0 0.0 240 / 71037.4 -13.0 5.5
2017-Dec-27 14:00N 41°30' W 081°42'0 0.0 230 / 81036.4 -14.5 5.4
2017-Dec-27 13:00N 41°30' W 081°42'0 0.0 180 / 71035.7 -14.4 5.4
2017-Dec-27 12:00N 41°30' W 081°42'0 0.0 080 / 61035.4 -13.7 5.4
2017-Dec-27 11:00N 41°30' W 081°42'0 0.0 210 / 81035.0 -13.8 5.0
2017-Dec-27 10:00N 41°30' W 081°42'0 0.0 260 / 31034.7 -13.8 5.4
2017-Dec-27 09:00N 41°30' W 081°42'0 0.0 230 / 51034.4 -12.9 5.7
2017-Dec-27 08:00N 41°30' W 081°42'0 0.0 230 / 51034.0 -12.4 6.4
2017-Dec-27 07:00N 41°30' W 081°42'0 0.0 250 / 101034.0 -12.5 4.1
2017-Dec-27 06:00N 41°30' W 081°42'0 0.0 220 / 41034.0 -12.5 4.0
2017-Dec-27 05:00N 41°30' W 081°42'0 0.0 020 / 41034.0 -12.2 4.0
2017-Dec-27 04:00N 41°30' W 081°42'0 0.0 180 / 21034.0 -12.0 4.2
2017-Dec-27 03:00N 41°30' W 081°42'0 0.0 200 / 41033.7 -11.6 4.1
2017-Dec-27 02:00N 41°30' W 081°42'0 0.0 270 / 31033.0 -11.2 4.3
2017-Dec-27 01:00N 41°30' W 081°42'0 0.0 030 / 191033.0 -10.6 4.7
2017-Dec-27 00:00N 41°30' W 081°42'0 0.0 150 / 61033.0 -10.6 6.7
2017-Dec-26 23:00N 41°30' W 081°42'0 0.0 270 / 91033.0 -9.7 6.8
2017-Dec-26 22:00N 41°30' W 081°42'0 0.0 250 / 91032.7 -10.3 6.2
2017-Dec-26 21:00N 41°30' W 081°42'0 0.0 210 / 61032.7 -10.2 5.1
2017-Dec-26 20:00N 41°30' W 081°42'0 0.0 220 / 71032.7 -9.8 5.3
2017-Dec-26 19:00N 41°30' W 081°42'0 0.0 240 / 41032.3 -10.2 5.3
2017-Dec-26 18:00N 41°30' W 081°42'0 0.0 220 / 71032.7 -10.6 5.2
2017-Dec-26 17:00N 41°30' W 081°42'0 0.0 220 / 101033.0 -10.2 6.9
2017-Dec-26 16:00N 41°30' W 081°42'0 0.0 240 / 41033.4 -10.9 6.9
2017-Dec-26 15:00N 41°30' W 081°42'0 0.0 140 / 41033.0 -11.3 6.8
2017-Dec-26 14:00N 41°30' W 081°42'0 0.0 200 / 81032.0 -10.5 7.1
2017-Dec-26 13:00N 41°30' W 081°42'0 0.0 240 / 171031.3 -11.7 4.6
2017-Dec-26 12:00N 41°30' W 081°42'0 0.0 080 / 51030.6 -11.8 4.7
2017-Dec-26 11:00N 41°30' W 081°42'0 0.0 130 / 171030.0 -11.7 4.6
2017-Dec-26 10:00N 41°30' W 081°42'0 0.0 160 / 151029.3 -11.5 4.9
2017-Dec-26 09:00N 41°30' W 081°42'0 0.0 130 / 91028.9 -11.2 4.7
2017-Dec-26 08:00N 41°30' W 081°42'0 0.0 140 / 81028.9 -11.0 4.5
2017-Dec-26 07:00N 41°30' W 081°42'0 0.0 120 / 101028.6 -10.8 4.6
2017-Dec-26 06:00N 41°30' W 081°42'0 0.0 260 / 41027.9 -10.5 4.7
2017-Dec-26 05:00N 41°30' W 081°42'0 0.0 180 / 81027.9 -10.1 4.8
2017-Dec-26 04:00N 41°30' W 081°42'0 0.0 120 / 251027.6 -9.6 5.1
2017-Dec-26 03:00N 41°30' W 081°42'0 0.0 200 / 111026.9 -9.0 5.2
2017-Dec-26 02:00N 41°30' W 081°42'0 0.0 120 / 101026.6 -8.9 5.3
2017-Dec-26 01:00N 41°30' W 081°42'0 0.0 040 / 41025.9 -8.3 5.3
2017-Dec-26 00:00N 41°30' W 081°42'0 0.0 180 / 91024.9 -7.6 5.1
2017-Dec-25 23:00N 41°30' W 081°42'0 0.0 020 / 61023.9 -7.4 5.2
2017-Dec-25 22:00N 41°30' W 081°42'0 0.0 060 / 21022.5 -7.1 5.3
2017-Dec-25 21:00N 41°30' W 081°42'0 0.0 250 / 211021.8 -6.2 6.3
2017-Dec-25 20:00N 41°30' W 081°42'0 0.0 250 / 261020.5 -5.8 7.6
2017-Dec-25 19:00N 41°30' W 081°42'0 0.0 250 / 251019.5 -5.1 6.5
2017-Dec-25 18:00N 41°30' W 081°42'0 0.0 250 / 241019.1 -5.5 6.0
2017-Dec-25 17:00N 41°30' W 081°42'0 0.0 230 / 261019.8 -5.7 8.1
2017-Dec-25 16:00N 41°30' W 081°42'0 0.0 250 / 251020.1 -5.7 7.2
2017-Dec-25 15:00N 41°30' W 081°42'0 0.0 230 / 231020.1 -6.2 8.0
2017-Dec-25 14:00N 41°30' W 081°42'0 0.0 240 / 211020.1 -6.7 6.3
2017-Dec-25 13:00N 41°30' W 081°42'0 0.0 240 / 201019.5 -6.6 8.3
2017-Dec-25 12:00N 41°30' W 081°42'0 0.0 250 / 241018.1 -5.7 8.6
2017-Dec-25 11:00N 41°30' W 081°42'0 0.0 240 / 211017.1 -5.2 8.0
2017-Dec-25 10:00N 41°30' W 081°42'0 0.0 250 / 261015.7 -4.9 8.7
2017-Dec-25 09:00N 41°30' W 081°42'0 0.0 250 / 271014.7 -5.2 8.6
2017-Dec-25 08:00N 41°30' W 081°42'0 0.0 250 / 281013.4 -4.9 8.5
2017-Dec-25 07:00N 41°30' W 081°42'0 0.0 240 / 241012.0 -4.5 8.8
2017-Dec-25 06:00N 41°30' W 081°42'0 0.0 250 / 311010.7 -3.1 8.1
2017-Dec-25 05:00N 41°30' W 081°42'0 0.0 330 1009.6 -1.9 8.1
2017-Dec-25 04:00N 41°30' W 081°42'0 0.0 180 / 291008.6 -0.5 8.0
2017-Dec-25 03:00N 41°30' W 081°42'0 0.0 260 / 221008.6 -0.5 7.9
2017-Dec-25 02:00N 41°30' W 081°42'0 0.0 300 / 31009.0 -0.4 8.8
2017-Dec-25 01:00N 41°30' W 081°42'0 0.0 100 / 31010.0 -0.6 8.3
2017-Dec-25 00:00N 41°30' W 081°42'0 0.0 050 / 51011.3 -0.0 7.9
2017-Dec-24 23:00N 41°30' W 081°42'0 0.0 040 / 31012.7 0.2 8.0
2017-Dec-24 22:00N 41°30' W 081°42'0 0.0 060 / 51013.4 0.5 8.0
2017-Dec-24 21:00N 41°30' W 081°42'0 0.0 090 / 41014.4 0.9 7.9
2017-Dec-24 20:00N 41°30' W 081°42'0 0.0 050 / 41015.4 0.5 8.7
2017-Dec-24 19:00N 41°30' W 081°42'0 0.0 090 / 41016.4 0.6 9.0
2017-Dec-24 18:00N 41°30' W 081°42'0 0.0 130 / 61018.5 0.4 9.1
2017-Dec-24 17:00N 41°30' W 081°42'0 0.0 080 / 61019.5 0.8 9.2
2017-Dec-24 16:00N 41°30' W 081°42'0 0.0 110 / 71020.8 0.3 9.1
2017-Dec-24 15:00N 41°30' W 081°42'0 0.0 080 / 71022.2 0.9 9.0
2017-Dec-24 14:00N 41°30' W 081°42'0 0.0 020 / 61023.2 -0.2 9.9
2017-Dec-24 13:00N 41°30' W 081°42'0 0.0 070 / 91023.5 -0.1 6.1
2017-Dec-24 12:00N 41°30' W 081°42'0 0.0 040 / 121023.5 -0.6 6.4
2017-Dec-24 11:00N 41°30' W 081°42'0 0.0 320 / 41023.5 -0.6 6.4
2017-Dec-24 10:00N 41°30' W 081°42'0 0.0 220 / 61023.5 -0.7 5.9
2017-Dec-24 09:00N 41°30' W 081°42'0 0.0 300 / 71023.5 0.1 6.1
2017-Dec-24 08:00N 41°30' W 081°42'0 0.0 300 / 71023.5 0.3 5.9
2017-Dec-24 07:00N 41°30' W 081°42'0 0.0 300 / 91022.9 0.3 5.9
2017-Dec-24 06:00N 41°30' W 081°42'0 0.0 320 / 141022.2 0.6 6.0
2017-Dec-24 05:00N 41°30' W 081°42'0 0.0 280 / 101022.2 -0.5 6.3
2017-Dec-24 04:00N 41°30' W 081°42'0 0.0 260 / 91022.2 -0.5 6.6
2017-Dec-24 03:00N 41°30' W 081°42'0 0.0 290 / 61021.8 -0.3 6.5
2017-Dec-24 02:00N 41°30' W 081°42'0 0.0 270 / 41021.5 -0.0 6.4
2017-Dec-24 01:00N 41°30' W 081°42'0 0.0 200 / 41020.8 1.8 9.3
2017-Dec-24 00:00N 41°30' W 081°42'0 0.0 320 / 81020.5 1.1 10.5
2017-Dec-23 23:00N 41°30' W 081°42'0 0.0 310 / 91018.8 1.0 10.1
2017-Dec-23 22:00N 41°30' W 081°42'0 0.0 310 / 101017.1 1.5 10.1
2017-Dec-23 21:00N 41°30' W 081°42'0 0.0 350 / 81015.7 1.5 10.3
2017-Dec-23 20:00N 41°30' W 081°42'0 0.0 340 / 71013.7 1.5 10.2
2017-Dec-23 19:00N 41°30' W 081°42'0 0.0 020 / 71013.0 3.3 10.2
2017-Dec-23 18:00N 41°30' W 081°42'0 0.0 060 / 121013.4 1.2 9.9
2017-Dec-23 17:00N 41°30' W 081°42'0 0.0 240 / 351013.4 0.5 9.4
2017-Dec-23 16:00N 41°30' W 081°42'7 7.5 040 / 281013.4 0.1 6.0
2017-Dec-23 15:00N 41°36' W 081°36'1110.8 360 / 181012.7 1.0 6.9
2017-Dec-23 14:00N 41°42' W 081°24'1312.8 360 / 161012.7 0.7 6.9
2017-Dec-23 13:00N 41°54' W 081°18'9 8.9 010 / 171012.0 1.4 7.2
2017-Dec-23 12:00N 41°54' W 081°06'9 8.9 020 / 141012.4 1.5 6.6
2017-Dec-23 11:00N 41°54' W 080°54'4 4.5 030 / 161012.4 1.5 5.8
2017-Dec-23 10:00N 41°54' W 080°48'0 0.0 020 / 221012.7 2.1 4.7
2017-Dec-23 09:00N 41°54' W 080°48'0 0.0 080 / 71013.7 2.1 4.8
2017-Dec-23 08:00N 41°54' W 080°48'0 0.0 060 / 91014.4 1.9 5.0
2017-Dec-23 07:00N 41°54' W 080°48'   050 / 111013.7 1.8 5.0
Track history (hours):
 
Tides and Currents Weather Stations Pressure Air Temp Water Temp Dewpoint Dewpoint Depression Visibility Wind Speed Wind Dir Waves Ship Positions

Dorothy Ann

Owner: THE INTERLAKE STEAMSHIP COMPANY, Middleburg Heights, OH. More information available from US FCC via Universal Licensing System and Coast Guard Vessel Documentation Center.

Last reported at 2018-Jan-02 07:00 UTC. Time now 2018-Jan-22 17:56 UTC.
Position N 41°48' W 081°42'.
Warning: this ship's position is 20 days out of date.

Length 215 m; draft 6.1 m.

Type: Cargo ship. MMSI: 367409260.

Wind from 250 at 52 knots

Barometer 1033.7 mb
Air temperature -10.9 ° C
Water temperature 5.0 ° C

Date/timePositionNaut miles runAvg speedWind from/ knotsBaromVisibWave heightAir tempDewpointWater temp
2018-Jan-02 07:00N 41°48' W 081°42'0 0.0 250 / 521033.7 -10.9 5.0
2018-Jan-02 06:00N 41°48' W 081°42'6 6.0 260 / 281033.7 -11.3 5.0
2018-Jan-02 05:00N 41°42' W 081°42'6 6.0 250 / 311034.0 -12.1 4.4
2018-Jan-02 04:00N 41°36' W 081°42'6 6.0 270 / 251034.4 -12.5 3.4
2018-Jan-02 03:00N 41°30' W 081°42'0 0.0 260 / 171034.7 -12.7 3.0
2018-Jan-02 02:00N 41°30' W 081°42'0 0.0 230 / 91035.0 -12.8 3.2
2018-Jan-02 01:00N 41°30' W 081°42'0 0.0 220 / 91034.7 -12.3 3.2
2018-Jan-02 00:00N 41°30' W 081°42'0 0.0 220 / 41034.4 -12.5 3.3
2018-Jan-01 23:00N 41°30' W 081°42'0 0.0 270 / 101034.0 -12.4 3.7
2018-Jan-01 22:00N 41°30' W 081°42'0 0.0 240 / 41033.7 -12.1 3.7
2018-Jan-01 21:00N 41°30' W 081°42'0 0.0 300 / 171033.4 -11.2 3.6
2018-Jan-01 20:00N 41°30' W 081°42'0 0.0 300 / 241032.7 -11.8 3.7
2018-Jan-01 19:00N 41°30' W 081°42'0 0.0 300 / 211032.3 -12.3 3.6
2018-Jan-01 18:00N 41°30' W 081°42'0 0.0 290 / 211032.3 -11.9 3.5
2018-Jan-01 17:00N 41°30' W 081°42'0 0.0 280 / 101033.0 -12.0 3.3
2018-Jan-01 16:00N 41°30' W 081°42'0 0.0 030 / 171033.7 -12.9 3.2
2018-Jan-01 15:00N 41°30' W 081°42'0 0.0 240 / 121033.4 -13.7 3.4
2018-Jan-01 14:00N 41°30' W 081°42'0 0.0 130 / 71033.0 -14.8 5.5
2018-Jan-01 13:00N 41°30' W 081°42'0 0.0 270 / 111033.0 -15.8 5.8
2018-Jan-01 12:00N 41°30' W 081°42'0 0.0 210 / 131032.7 -16.2 5.1
2018-Jan-01 11:00N 41°30' W 081°42'0 0.0 210 / 101032.3 -15.7 5.5
2018-Jan-01 10:00N 41°30' W 081°42'0 0.0 210 / 161032.3 -15.4 5.4
2018-Jan-01 09:00N 41°30' W 081°42'0 0.0 200 / 101032.7 -14.8 5.4
2018-Jan-01 08:00N 41°30' W 081°42'0 0.0 210 / 121032.7 -14.6 5.5
2018-Jan-01 07:00N 41°30' W 081°42'0 0.0 210 / 101032.0 -14.5 5.4
2018-Jan-01 06:00N 41°30' W 081°42'0 0.0 210 / 111032.0 -14.2 5.3
2018-Jan-01 05:00N 41°30' W 081°42'0 0.0 210 / 101032.0 -13.8 5.3
2018-Jan-01 04:00N 41°30' W 081°42'0 0.0 200 / 101032.3 -13.4 5.7
2018-Jan-01 03:00N 41°30' W 081°42'0 0.0 220 / 121032.0 -12.4 5.4
2018-Jan-01 02:00N 41°30' W 081°42'0 0.0 240 / 81031.7 -11.3 6.1
2018-Jan-01 01:00N 41°30' W 081°42'0 0.0 270 / 51031.7 -9.7 5.7
2018-Jan-01 00:00N 41°30' W 081°42'0 0.0 250 / 101031.3 -9.6 3.8
2017-Dec-31 23:00N 41°30' W 081°42'6 6.0 290 / 141031.0 -8.4 3.0
2017-Dec-31 22:00N 41°36' W 081°42'7 7.5 310 / 181030.3 -8.3 4.1
2017-Dec-31 21:00N 41°42' W 081°36'7 7.5
2017-Dec-31 20:00N 41°48' W 081°30'7 7.5
2017-Dec-31 19:00N 41°54' W 081°24'4 4.5 320 / 141029.3 -8.6 4.9
2017-Dec-31 18:00N 41°54' W 081°18'7 7.5 330 / 131029.3 -8.3 5.3
2017-Dec-31 17:00N 42°00' W 081°12'9 8.9 360 / 81029.6 -9.0 5.1
2017-Dec-31 16:00N 42°00' W 081°00'4 4.5 020 / 71030.3 -9.4 5.0
2017-Dec-31 15:00N 42°00' W 080°54'4 4.5 030 / 91030.0 -10.0 4.7
2017-Dec-31 14:00N 42°00' W 080°48'6 6.0 050 / 141028.9 -10.0 3.6
2017-Dec-31 13:00N 41°54' W 080°48'0 0.0 040 / 91029.6 -9.9 3.1
2017-Dec-31 12:00N 41°54' W 080°48'0 0.0 020 / 91027.9 -9.8 3.3
2017-Dec-31 11:00N 41°54' W 080°48'0 0.0 040 / 161027.3 -9.9 3.5
2017-Dec-31 10:00N 41°54' W 080°48'0 0.0 020 / 91027.6 -9.8 3.5
2017-Dec-31 09:00N 41°54' W 080°48'0 0.0 1027.9 -9.5 3.5
2017-Dec-31 08:00N 41°54' W 080°48'0 0.0 1027.6 -9.6 3.6
2017-Dec-31 07:00N 41°54' W 080°48'0 0.0 240 / 81026.2 -9.2 3.6
2017-Dec-31 06:00N 41°54' W 080°48'0 0.0 310 / 61025.9 -8.8 3.6
2017-Dec-31 05:00N 41°54' W 080°48'0 0.0 1025.6 -8.6 3.6
2017-Dec-31 04:00N 41°54' W 080°48'0 0.0 270 / 11025.2 -8.6 3.6
2017-Dec-31 03:00N 41°54' W 080°48'0 0.0 340 / 71024.2 -8.2 3.6
2017-Dec-31 02:00N 41°54' W 080°48'0 0.0 350 / 131023.2 -7.8 3.6
2017-Dec-31 01:00N 41°54' W 080°48'0 0.0 310 / 201021.8 -7.6 3.5
2017-Dec-31 00:00N 41°54' W 080°48'0 0.0 340 / 191021.2 -7.8 3.6
2017-Dec-30 23:00N 41°54' W 080°48'0 0.0 300 / 261019.8 -8.4 3.5
2017-Dec-30 22:00N 41°54' W 080°48'0 0.0 290 / 201018.5 -7.9 3.5
2017-Dec-30 21:00N 41°54' W 080°48'0 0.0 300 / 261017.1 -8.0 3.5
2017-Dec-30 20:00N 41°54' W 080°48'0 0.0 300 / 241016.4 -7.9 3.4
2017-Dec-30 19:00N 41°54' W 080°48'0 0.0 290 / 221016.1 -8.0 3.5
2017-Dec-30 18:00N 41°54' W 080°48'0 0.0 310 / 201015.4 -8.0 3.7
2017-Dec-30 17:00N 41°54' W 080°48'0 0.0 300 / 201015.4 -7.1 3.5
2017-Dec-30 16:00N 41°54' W 080°48'0 0.0 240 / 131016.1 -8.4 3.5
2017-Dec-30 15:00N 41°54' W 080°48'0 0.0 240 / 111016.4 -9.0 3.5
2017-Dec-30 14:00N 41°54' W 080°48'0 0.0 230 / 91016.8 -9.1 3.6
2017-Dec-30 13:00N 41°54' W 080°48'0 0.0 210 / 61016.8 -9.2 3.5
2017-Dec-30 12:00N 41°54' W 080°48'0 0.0 190 / 61017.4 -9.1 3.5
2017-Dec-30 11:00N 41°54' W 080°48'0 0.0 270 / 31017.1 -9.2 3.5
2017-Dec-30 10:00N 41°54' W 080°48'0 0.0 230 / 51017.8 -9.2 3.5
2017-Dec-30 09:00N 41°54' W 080°48'0 0.0 220 / 71018.1 -9.0 3.5
2017-Dec-30 08:00N 41°54' W 080°48'0 0.0 180 / 61018.5 -9.2 3.5
2017-Dec-30 07:00N 41°54' W 080°48'0 0.0 180 / 61018.8 -9.3 3.6
2017-Dec-30 06:00N 41°54' W 080°48'0 0.0 240 / 71019.8 -9.1 3.4
2017-Dec-30 05:00N 41°54' W 080°48'0 0.0 360 / 141020.5 -8.7 3.1
2017-Dec-30 04:00N 41°54' W 080°48'4 4.5 210 / 201021.5 -8.3 3.7
2017-Dec-30 03:00N 41°54' W 080°54'9 8.9 200 / 211022.2 -8.1 3.8
2017-Dec-30 02:00N 41°54' W 081°06'4 4.5 200 / 231022.9 -7.3 4.0
2017-Dec-30 01:00N 41°54' W 081°12'1110.8 170 / 121023.9 -6.6 4.2
2017-Dec-30 00:00N 41°48' W 081°24'7 7.5 230 / 121024.5 -7.0 3.6
2017-Dec-29 23:00N 41°42' W 081°30'1110.8 260 / 171024.9 -5.5 3.4
2017-Dec-29 22:00N 41°36' W 081°42'6 6.0 250 / 141025.2 -3.0 3.3
2017-Dec-29 21:00N 41°30' W 081°42'0 0.0 240 / 61025.9 -7.6 4.1
2017-Dec-29 20:00N 41°30' W 081°42'0 0.0 250 / 81025.2 -7.7 5.7
2017-Dec-29 19:00N 41°30' W 081°42'0 0.0 220 / 81025.9 -6.4 6.0
2017-Dec-29 18:00N 41°30' W 081°42'0 0.0 180 / 91025.6 -8.2 5.2
2017-Dec-29 17:00N 41°30' W 081°42'0 0.0 270 / 41026.6 -8.8 5.6
2017-Dec-29 16:00N 41°30' W 081°42'0 0.0 080 / 41026.9 -9.2 5.6
2017-Dec-29 15:00N 41°30' W 081°42'0 0.0 030 / 41026.6 -9.5 6.3
2017-Dec-29 14:00N 41°30' W 081°42'0 0.0 250 / 31026.2 -10.0 5.9
2017-Dec-29 13:00N 41°30' W 081°42'0 0.0 140 / 21026.2 -9.9 6.0
2017-Dec-29 12:00N 41°30' W 081°42'0 0.0 010 / 21026.2 -10.0 6.3
2017-Dec-29 11:00N 41°30' W 081°42'0 0.0 240 / 41026.2 -10.0 6.2
2017-Dec-29 10:00N 41°30' W 081°42'0 0.0 140 / 41026.9 -10.1 6.1
2017-Dec-29 09:00N 41°30' W 081°42'0 0.0 180 / 31027.6 -10.2 6.0
2017-Dec-29 08:00N 41°30' W 081°42'0 0.0 170 / 41027.6 -10.1 6.0
2017-Dec-29 07:00N 41°30' W 081°42'0 0.0 290 / 31027.9 -10.2 5.8
2017-Dec-29 06:00N 41°30' W 081°42'0 0.0 120 / 61028.3 -10.0 5.4
2017-Dec-29 05:00N 41°30' W 081°42'0 0.0 090 / 51028.9 -10.0 4.3
2017-Dec-29 04:00N 41°30' W 081°42'0 0.0 160 / 111030.3 -10.1 3.3
2017-Dec-29 03:00N 41°30' W 081°42'0 0.0 180 / 61031.7 -9.8 3.9
2017-Dec-29 02:00N 41°30' W 081°42'0 0.0 130 / 51032.0 -8.8 4.2
2017-Dec-29 01:00N 41°30' W 081°42'0 0.0 120 / 51032.7 -8.9 4.1
2017-Dec-29 00:00N 41°30' W 081°42'0 0.0 110 / 61033.0 -8.8 4.1
2017-Dec-28 23:00N 41°30' W 081°42'0 0.0 110 / 61033.4 -9.0 4.0
2017-Dec-28 22:00N 41°30' W 081°42'0 0.0 110 / 41034.4 -8.5 3.5
2017-Dec-28 21:00N 41°30' W 081°42'0 0.0 310 / 11035.0 -7.6 3.5
2017-Dec-28 20:00N 41°30' W 081°42'0 0.0 330 / 41035.4 -9.1 3.4
2017-Dec-28 19:00N 41°30' W 081°42'0 0.0 020 / 21036.1 -7.8 3.4
2017-Dec-28 18:00N 41°30' W 081°42'0 0.0 220 / 11037.4 -10.0 3.4
2017-Dec-28 17:00N 41°30' W 081°42'0 0.0 290 / 31038.4 -10.4 3.5
2017-Dec-28 16:00N 41°30' W 081°42'0 0.0 110 / 11039.1 -11.2 3.5
2017-Dec-28 15:00N 41°30' W 081°42'0 0.0 240 1039.1 -11.7 3.5
2017-Dec-28 14:00N 41°30' W 081°42'0 0.0 270 / 51038.8 -11.2 4.9
2017-Dec-28 13:00N 41°30' W 081°42'0 0.0 060 / 51038.8 -9.4 5.5
2017-Dec-28 12:00N 41°30' W 081°42'0 0.0 210 / 121038.4 -12.7 5.1
2017-Dec-28 11:00N 41°30' W 081°42'0 0.0 200 / 101038.4 -12.7 5.3
2017-Dec-28 10:00N 41°30' W 081°42'0 0.0 220 / 101038.4 -13.0 5.2
2017-Dec-28 09:00N 41°30' W 081°42'0 0.0 220 / 81038.1 -12.5 5.3
2017-Dec-28 08:00N 41°30' W 081°42'0 0.0 210 / 101037.8 -12.7 5.4
2017-Dec-28 07:00N 41°30' W 081°42'0 0.0 180 / 91037.8 -12.8 5.3
2017-Dec-28 06:00N 41°30' W 081°42'0 0.0 220 / 61038.1 -11.9 5.7
2017-Dec-28 05:00N 41°30' W 081°42'0 0.0 180 / 41037.8 -11.1 5.3
2017-Dec-28 04:00N 41°30' W 081°42'0 0.0 240 / 81037.8 -12.2 5.6
2017-Dec-28 03:00N 41°30' W 081°42'0 0.0 230 / 31037.8 -11.9 3.6
2017-Dec-28 02:00N 41°30' W 081°42'0 0.0 280 / 21037.8 -12.1 3.4
2017-Dec-28 01:00N 41°30' W 081°42'0 0.0 180 / 41038.1 -12.1 3.4
2017-Dec-28 00:00N 41°30' W 081°42'0 0.0 240 / 441037.8 -10.6 3.4
2017-Dec-27 23:00N 41°30' W 081°42'0 0.0 280 / 41037.8 -11.7 3.5
2017-Dec-27 22:00N 41°30' W 081°42'0 0.0 1037.8 -11.9 3.5
2017-Dec-27 21:00N 41°30' W 081°42'0 0.0 280 / 141037.1 -10.9 3.5
2017-Dec-27 20:00N 41°30' W 081°42'0 0.0 150 / 131036.7 -11.2 3.6
2017-Dec-27 19:00N 41°30' W 081°42'0 0.0 260 / 151036.4 -11.5 3.6
2017-Dec-27 18:00N 41°30' W 081°42'0 0.0 200 / 151036.4 -11.4 4.0
2017-Dec-27 17:00N 41°30' W 081°42'0 0.0 260 / 61037.1 -10.5 5.2
2017-Dec-27 16:00N 41°30' W 081°42'0 0.0 200 / 41037.4 -11.7 5.5
2017-Dec-27 15:00N 41°30' W 081°42'0 0.0 240 / 71037.4 -13.0 5.5
2017-Dec-27 14:00N 41°30' W 081°42'0 0.0 230 / 81036.4 -14.5 5.4
2017-Dec-27 13:00N 41°30' W 081°42'0 0.0 180 / 71035.7 -14.4 5.4
2017-Dec-27 12:00N 41°30' W 081°42'0 0.0 080 / 61035.4 -13.7 5.4
2017-Dec-27 11:00N 41°30' W 081°42'0 0.0 210 / 81035.0 -13.8 5.0
2017-Dec-27 10:00N 41°30' W 081°42'0 0.0 260 / 31034.7 -13.8 5.4
2017-Dec-27 09:00N 41°30' W 081°42'0 0.0 230 / 51034.4 -12.9 5.7
2017-Dec-27 08:00N 41°30' W 081°42'0 0.0 230 / 51034.0 -12.4 6.4
2017-Dec-27 07:00N 41°30' W 081°42'0 0.0 250 / 101034.0 -12.5 4.1
2017-Dec-27 06:00N 41°30' W 081°42'0 0.0 220 / 41034.0 -12.5 4.0
2017-Dec-27 05:00N 41°30' W 081°42'0 0.0 020 / 41034.0 -12.2 4.0
2017-Dec-27 04:00N 41°30' W 081°42'0 0.0 180 / 21034.0 -12.0 4.2
2017-Dec-27 03:00N 41°30' W 081°42'0 0.0 200 / 41033.7 -11.6 4.1
2017-Dec-27 02:00N 41°30' W 081°42'0 0.0 270 / 31033.0 -11.2 4.3
2017-Dec-27 01:00N 41°30' W 081°42'0 0.0 030 / 191033.0 -10.6 4.7
2017-Dec-27 00:00N 41°30' W 081°42'0 0.0 150 / 61033.0 -10.6 6.7
2017-Dec-26 23:00N 41°30' W 081°42'0 0.0 270 / 91033.0 -9.7 6.8
2017-Dec-26 22:00N 41°30' W 081°42'0 0.0 250 / 91032.7 -10.3 6.2
2017-Dec-26 21:00N 41°30' W 081°42'0 0.0 210 / 61032.7 -10.2 5.1
2017-Dec-26 20:00N 41°30' W 081°42'0 0.0 220 / 71032.7 -9.8 5.3
2017-Dec-26 19:00N 41°30' W 081°42'0 0.0 240 / 41032.3 -10.2 5.3
2017-Dec-26 18:00N 41°30' W 081°42'0 0.0 220 / 71032.7 -10.6 5.2
2017-Dec-26 17:00N 41°30' W 081°42'0 0.0 220 / 101033.0 -10.2 6.9
2017-Dec-26 16:00N 41°30' W 081°42'0 0.0 240 / 41033.4 -10.9 6.9
2017-Dec-26 15:00N 41°30' W 081°42'0 0.0 140 / 41033.0 -11.3 6.8
2017-Dec-26 14:00N 41°30' W 081°42'0 0.0 200 / 81032.0 -10.5 7.1
2017-Dec-26 13:00N 41°30' W 081°42'0 0.0 240 / 171031.3 -11.7 4.6
2017-Dec-26 12:00N 41°30' W 081°42'0 0.0 080 / 51030.6 -11.8 4.7
2017-Dec-26 11:00N 41°30' W 081°42'0 0.0 130 / 171030.0 -11.7 4.6
2017-Dec-26 10:00N 41°30' W 081°42'0 0.0 160 / 151029.3 -11.5 4.9
2017-Dec-26 09:00N 41°30' W 081°42'0 0.0 130 / 91028.9 -11.2 4.7
2017-Dec-26 08:00N 41°30' W 081°42'0 0.0 140 / 81028.9 -11.0 4.5
2017-Dec-26 07:00N 41°30' W 081°42'0 0.0 120 / 101028.6 -10.8 4.6
2017-Dec-26 06:00N 41°30' W 081°42'0 0.0 260 / 41027.9 -10.5 4.7
2017-Dec-26 05:00N 41°30' W 081°42'0 0.0 180 / 81027.9 -10.1 4.8
2017-Dec-26 04:00N 41°30' W 081°42'0 0.0 120 / 251027.6 -9.6 5.1
2017-Dec-26 03:00N 41°30' W 081°42'0 0.0 200 / 111026.9 -9.0 5.2
2017-Dec-26 02:00N 41°30' W 081°42'0 0.0 120 / 101026.6 -8.9 5.3
2017-Dec-26 01:00N 41°30' W 081°42'0 0.0 040 / 41025.9 -8.3 5.3
2017-Dec-26 00:00N 41°30' W 081°42'0 0.0 180 / 91024.9 -7.6 5.1
2017-Dec-25 23:00N 41°30' W 081°42'0 0.0 020 / 61023.9 -7.4 5.2
2017-Dec-25 22:00N 41°30' W 081°42'0 0.0 060 / 21022.5 -7.1 5.3
2017-Dec-25 21:00N 41°30' W 081°42'0 0.0 250 / 211021.8 -6.2 6.3
2017-Dec-25 20:00N 41°30' W 081°42'0 0.0 250 / 261020.5 -5.8 7.6
2017-Dec-25 19:00N 41°30' W 081°42'0 0.0 250 / 251019.5 -5.1 6.5
2017-Dec-25 18:00N 41°30' W 081°42'0 0.0 250 / 241019.1 -5.5 6.0
2017-Dec-25 17:00N 41°30' W 081°42'0 0.0 230 / 261019.8 -5.7 8.1
2017-Dec-25 16:00N 41°30' W 081°42'0 0.0 250 / 251020.1 -5.7 7.2
2017-Dec-25 15:00N 41°30' W 081°42'0 0.0 230 / 231020.1 -6.2 8.0
2017-Dec-25 14:00N 41°30' W 081°42'0 0.0 240 / 211020.1 -6.7 6.3
2017-Dec-25 13:00N 41°30' W 081°42'0 0.0 240 / 201019.5 -6.6 8.3
2017-Dec-25 12:00N 41°30' W 081°42'0 0.0 250 / 241018.1 -5.7 8.6
2017-Dec-25 11:00N 41°30' W 081°42'0 0.0 240 / 211017.1 -5.2 8.0
2017-Dec-25 10:00N 41°30' W 081°42'0 0.0 250 / 261015.7 -4.9 8.7
2017-Dec-25 09:00N 41°30' W 081°42'0 0.0 250 / 271014.7 -5.2 8.6
2017-Dec-25 08:00N 41°30' W 081°42'0 0.0 250 / 281013.4 -4.9 8.5
2017-Dec-25 07:00N 41°30' W 081°42'0 0.0 240 / 241012.0 -4.5 8.8
2017-Dec-25 06:00N 41°30' W 081°42'0 0.0 250 / 311010.7 -3.1 8.1
2017-Dec-25 05:00N 41°30' W 081°42'0 0.0 330 1009.6 -1.9 8.1
2017-Dec-25 04:00N 41°30' W 081°42'0 0.0 180 / 291008.6 -0.5 8.0
2017-Dec-25 03:00N 41°30' W 081°42'0 0.0 260 / 221008.6 -0.5 7.9
2017-Dec-25 02:00N 41°30' W 081°42'0 0.0 300 / 31009.0 -0.4 8.8
2017-Dec-25 01:00N 41°30' W 081°42'0 0.0 100 / 31010.0 -0.6 8.3
2017-Dec-25 00:00N 41°30' W 081°42'0 0.0 050 / 51011.3 -0.0 7.9
2017-Dec-24 23:00N 41°30' W 081°42'0 0.0 040 / 31012.7 0.2 8.0
2017-Dec-24 22:00N 41°30' W 081°42'0 0.0 060 / 51013.4 0.5 8.0
2017-Dec-24 21:00N 41°30' W 081°42'0 0.0 090 / 41014.4 0.9 7.9
2017-Dec-24 20:00N 41°30' W 081°42'0 0.0 050 / 41015.4 0.5 8.7
2017-Dec-24 19:00N 41°30' W 081°42'0 0.0 090 / 41016.4 0.6 9.0
2017-Dec-24 18:00N 41°30' W 081°42'0 0.0 130 / 61018.5 0.4 9.1
2017-Dec-24 17:00N 41°30' W 081°42'0 0.0 080 / 61019.5 0.8 9.2
2017-Dec-24 16:00N 41°30' W 081°42'0 0.0 110 / 71020.8 0.3 9.1
2017-Dec-24 15:00N 41°30' W 081°42'0 0.0 080 / 71022.2 0.9 9.0
2017-Dec-24 14:00N 41°30' W 081°42'0 0.0 020 / 61023.2 -0.2 9.9
2017-Dec-24 13:00N 41°30' W 081°42'0 0.0 070 / 91023.5 -0.1 6.1
2017-Dec-24 12:00N 41°30' W 081°42'0 0.0 040 / 121023.5 -0.6 6.4
2017-Dec-24 11:00N 41°30' W 081°42'0 0.0 320 / 41023.5 -0.6 6.4
2017-Dec-24 10:00N 41°30' W 081°42'0 0.0 220 / 61023.5 -0.7 5.9
2017-Dec-24 09:00N 41°30' W 081°42'0 0.0 300 / 71023.5 0.1 6.1
2017-Dec-24 08:00N 41°30' W 081°42'0 0.0 300 / 71023.5 0.3 5.9
2017-Dec-24 07:00N 41°30' W 081°42'0 0.0 300 / 91022.9 0.3 5.9
2017-Dec-24 06:00N 41°30' W 081°42'0 0.0 320 / 141022.2 0.6 6.0
2017-Dec-24 05:00N 41°30' W 081°42'0 0.0 280 / 101022.2 -0.5 6.3
2017-Dec-24 04:00N 41°30' W 081°42'0 0.0 260 / 91022.2 -0.5 6.6
2017-Dec-24 03:00N 41°30' W 081°42'0 0.0 290 / 61021.8 -0.3 6.5
2017-Dec-24 02:00N 41°30' W 081°42'0 0.0 270 / 41021.5 -0.0 6.4
2017-Dec-24 01:00N 41°30' W 081°42'0 0.0 200 / 41020.8 1.8 9.3
2017-Dec-24 00:00N 41°30' W 081°42'0 0.0 320 / 81020.5 1.1 10.5
2017-Dec-23 23:00N 41°30' W 081°42'0 0.0 310 / 91018.8 1.0 10.1
2017-Dec-23 22:00N 41°30' W 081°42'0 0.0 310 / 101017.1 1.5 10.1
2017-Dec-23 21:00N 41°30' W 081°42'0 0.0 350 / 81015.7 1.5 10.3
2017-Dec-23 20:00N 41°30' W 081°42'0 0.0 340 / 71013.7 1.5 10.2
2017-Dec-23 19:00N 41°30' W 081°42'0 0.0 020 / 71013.0 3.3 10.2
2017-Dec-23 18:00N 41°30' W 081°42'0 0.0 060 / 121013.4 1.2 9.9
2017-Dec-23 17:00N 41°30' W 081°42'0 0.0 240 / 351013.4 0.5 9.4
2017-Dec-23 16:00N 41°30' W 081°42'7 7.5 040 / 281013.4 0.1 6.0
2017-Dec-23 15:00N 41°36' W 081°36'1110.8 360 / 181012.7 1.0 6.9
2017-Dec-23 14:00N 41°42' W 081°24'1312.8 360 / 161012.7 0.7 6.9
2017-Dec-23 13:00N 41°54' W 081°18'9 8.9 010 / 171012.0 1.4 7.2
2017-Dec-23 12:00N 41°54' W 081°06'9 8.9 020 / 141012.4 1.5 6.6
2017-Dec-23 11:00N 41°54' W 080°54'4 4.5 030 / 161012.4 1.5 5.8
2017-Dec-23 10:00N 41°54' W 080°48'0 0.0 020 / 221012.7 2.1 4.7
2017-Dec-23 09:00N 41°54' W 080°48'0 0.0 080 / 71013.7 2.1 4.8
2017-Dec-23 08:00N 41°54' W 080°48'0 0.0 060 / 91014.4 1.9 5.0
2017-Dec-23 07:00N 41°54' W 080°48'   050 / 111013.7 1.8 5.0

Dump ship's entire track history